Аэропорт: Стригино. Нижний Новгород

ICAO: UWGG

METAR:
2019-07-23 18:30:00
UWGG 231830Z VRB01MPS 9999 -SHRA SCT009CB 18/17 Q1014 R18L/290050 TEMPO BKN007
METAR:
2019-07-23 16:50:00
TAF UWGG 231650Z 2318/2418 16003MPS 9999 BKN016 TX24/2412Z TN16/2403Z TEMPO 2318/2412 14005G10MPS 3100 -TSRA BR SCT007 BKN011CB PROB40 TEMPO 2318/2324 0500 FG